sensor_id;sensor_type;location;lat;lon;timestamp;temperature;humidity
70246;SHT30;57637;49.272;8.590;2023-05-21T00:01:01;15.71;81.81
70246;SHT30;57637;49.272;8.590;2023-05-21T00:03:29;15.70;81.82
70246;SHT30;57637;49.272;8.590;2023-05-21T00:05:57;15.70;81.84
70246;SHT30;57637;49.272;8.590;2023-05-21T00:08:25;15.71;81.88
70246;SHT30;57637;49.272;8.590;2023-05-21T00:10:50;15.68;82.01
70246;SHT30;57637;49.272;8.590;2023-05-21T00:13:16;15.64;82.12
70246;SHT30;57637;49.272;8.590;2023-05-21T00:15:41;15.58;82.24
70246;SHT30;57637;49.272;8.590;2023-05-21T00:18:07;15.58;82.39
70246;SHT30;57637;49.272;8.590;2023-05-21T00:20:32;15.61;82.41
70246;SHT30;57637;49.272;8.590;2023-05-21T00:22:58;15.58;82.43
70246;SHT30;57637;49.272;8.590;2023-05-21T00:25:23;15.58;82.43
70246;SHT30;57637;49.272;8.590;2023-05-21T00:27:49;15.60;82.39
70246;SHT30;57637;49.272;8.590;2023-05-21T00:30:14;15.60;82.44
70246;SHT30;57637;49.272;8.590;2023-05-21T00:32:40;15.60;82.37
70246;SHT30;57637;49.272;8.590;2023-05-21T00:35:06;15.60;82.40
70246;SHT30;57637;49.272;8.590;2023-05-21T00:37:32;15.60;82.32
70246;SHT30;57637;49.272;8.590;2023-05-21T00:40:01;15.58;82.40
70246;SHT30;57637;49.272;8.590;2023-05-21T00:42:29;15.58;82.49
70246;SHT30;57637;49.272;8.590;2023-05-21T00:44:54;15.57;82.52
70246;SHT30;57637;49.272;8.590;2023-05-21T00:47:20;15.51;82.69
70246;SHT30;57637;49.272;8.590;2023-05-21T00:49:46;15.54;82.72
70246;SHT30;57637;49.272;8.590;2023-05-21T00:52:13;15.51;82.80
70246;SHT30;57637;49.272;8.590;2023-05-21T00:54:44;15.50;82.89
70246;SHT30;57637;49.272;8.590;2023-05-21T00:57:10;15.50;82.84
70246;SHT30;57637;49.272;8.590;2023-05-21T00:59:36;15.51;82.77
70246;SHT30;57637;49.272;8.590;2023-05-21T01:02:01;15.51;82.79
70246;SHT30;57637;49.272;8.590;2023-05-21T01:04:29;15.50;82.82
70246;SHT30;57637;49.272;8.590;2023-05-21T01:06:55;15.50;82.85
70246;SHT30;57637;49.272;8.590;2023-05-21T01:09:23;15.51;82.94
70246;SHT30;57637;49.272;8.590;2023-05-21T01:11:50;15.47;83.00
70246;SHT30;57637;49.272;8.590;2023-05-21T01:14:17;15.46;83.00
70246;SHT30;57637;49.272;8.590;2023-05-21T01:16:44;15.43;83.08
70246;SHT30;57637;49.272;8.590;2023-05-21T01:19:16;15.41;83.19
70246;SHT30;57637;49.272;8.590;2023-05-21T01:21:48;15.37;83.32
70246;SHT30;57637;49.272;8.590;2023-05-21T01:24:15;15.34;83.37
70246;SHT30;57637;49.272;8.590;2023-05-21T01:26:40;15.33;83.43
70246;SHT30;57637;49.272;8.590;2023-05-21T01:29:08;15.34;83.43
70246;SHT30;57637;49.272;8.590;2023-05-21T01:34:42;15.34;83.48
70246;SHT30;57637;49.272;8.590;2023-05-21T01:40:06;15.26;83.83
70246;SHT30;57637;49.272;8.590;2023-05-21T01:42:45;15.22;84.06
70246;SHT30;57637;49.272;8.590;2023-05-21T01:45:11;15.20;83.95
70246;SHT30;57637;49.272;8.590;2023-05-21T01:47:39;15.17;84.03
70246;SHT30;57637;49.272;8.590;2023-05-21T01:50:08;15.10;84.12
70246;SHT30;57637;49.272;8.590;2023-05-21T01:52:35;15.04;84.40
70246;SHT30;57637;49.272;8.590;2023-05-21T01:55:00;15.03;84.48
70246;SHT30;57637;49.272;8.590;2023-05-21T01:57:26;15.06;84.41
70246;SHT30;57637;49.272;8.590;2023-05-21T01:59:51;15.03;84.46
70246;SHT30;57637;49.272;8.590;2023-05-21T02:02:17;15.03;84.51
70246;SHT30;57637;49.272;8.590;2023-05-21T02:04:43;15.03;84.50
70246;SHT30;57637;49.272;8.590;2023-05-21T02:07:10;15.03;84.61
70246;SHT30;57637;49.272;8.590;2023-05-21T02:09:38;15.02;84.68
70246;SHT30;57637;49.272;8.590;2023-05-21T02:12:04;15.02;84.61
70246;SHT30;57637;49.272;8.590;2023-05-21T02:14:30;15.02;84.55
70246;SHT30;57637;49.272;8.590;2023-05-21T02:16:57;15.00;84.60
70246;SHT30;57637;49.272;8.590;2023-05-21T02:19:23;15.02;84.64
70246;SHT30;57637;49.272;8.590;2023-05-21T02:21:48;14.97;84.69
70246;SHT30;57637;49.272;8.590;2023-05-21T02:24:14;14.95;84.75
70246;SHT30;57637;49.272;8.590;2023-05-21T02:26:39;14.93;84.81
70246;SHT30;57637;49.272;8.590;2023-05-21T02:29:05;14.95;84.73
70246;SHT30;57637;49.272;8.590;2023-05-21T02:31:30;14.93;84.81
70246;SHT30;57637;49.272;8.590;2023-05-21T02:33:56;14.90;84.91
70246;SHT30;57637;49.272;8.590;2023-05-21T02:36:21;14.92;84.90
70246;SHT30;57637;49.272;8.590;2023-05-21T02:38:49;14.87;84.95
70246;SHT30;57637;49.272;8.590;2023-05-21T02:41:14;14.86;84.97
70246;SHT30;57637;49.272;8.590;2023-05-21T02:43:40;14.87;84.96
70246;SHT30;57637;49.272;8.590;2023-05-21T02:46:05;14.86;85.00
70246;SHT30;57637;49.272;8.590;2023-05-21T02:48:31;14.85;84.97
70246;SHT30;57637;49.272;8.590;2023-05-21T02:50:57;14.87;84.99
70246;SHT30;57637;49.272;8.590;2023-05-21T02:53:22;14.85;85.07
70246;SHT30;57637;49.272;8.590;2023-05-21T02:55:48;14.80;85.10
70246;SHT30;57637;49.272;8.590;2023-05-21T02:58:13;14.82;85.26
70246;SHT30;57637;49.272;8.590;2023-05-21T03:00:39;14.79;85.25
70246;SHT30;57637;49.272;8.590;2023-05-21T03:03:04;14.76;85.31
70246;SHT30;57637;49.272;8.590;2023-05-21T03:05:29;14.75;85.27
70246;SHT30;57637;49.272;8.590;2023-05-21T03:07:55;14.75;85.33
70246;SHT30;57637;49.272;8.590;2023-05-21T03:10:21;14.71;85.47
70246;SHT30;57637;49.272;8.590;2023-05-21T03:12:46;14.65;85.58
70246;SHT30;57637;49.272;8.590;2023-05-21T03:15:11;14.64;85.51
70246;SHT30;57637;49.272;8.590;2023-05-21T03:17:39;14.62;85.49
70246;SHT30;57637;49.272;8.590;2023-05-21T03:20:08;14.59;85.58
70246;SHT30;57637;49.272;8.590;2023-05-21T03:22:40;14.59;85.60
70246;SHT30;57637;49.272;8.590;2023-05-21T03:25:06;14.59;85.58
70246;SHT30;57637;49.272;8.590;2023-05-21T03:27:33;14.58;85.57
70246;SHT30;57637;49.272;8.590;2023-05-21T03:29:58;14.49;85.63
70246;SHT30;57637;49.272;8.590;2023-05-21T03:32:23;14.48;85.80
70246;SHT30;57637;49.272;8.590;2023-05-21T03:34:49;14.49;85.84
70246;SHT30;57637;49.272;8.590;2023-05-21T03:37:14;14.48;85.87
70246;SHT30;57637;49.272;8.590;2023-05-21T03:39:40;14.46;85.90
70246;SHT30;57637;49.272;8.590;2023-05-21T03:42:05;14.48;85.89
70246;SHT30;57637;49.272;8.590;2023-05-21T03:44:31;14.45;85.93
70246;SHT30;57637;49.272;8.590;2023-05-21T03:46:57;14.45;85.93
70246;SHT30;57637;49.272;8.590;2023-05-21T03:49:23;14.46;85.93
70246;SHT30;57637;49.272;8.590;2023-05-21T03:51:49;14.44;85.97
70246;SHT30;57637;49.272;8.590;2023-05-21T03:54:15;14.45;85.99
70246;SHT30;57637;49.272;8.590;2023-05-21T03:56:41;14.48;86.03
70246;SHT30;57637;49.272;8.590;2023-05-21T03:59:06;14.45;86.09
70246;SHT30;57637;49.272;8.590;2023-05-21T04:01:31;14.46;86.14
70246;SHT30;57637;49.272;8.590;2023-05-21T04:03:57;14.44;86.13
70246;SHT30;57637;49.272;8.590;2023-05-21T04:06:22;14.44;86.08
70246;SHT30;57637;49.272;8.590;2023-05-21T04:08:48;14.45;86.03
70246;SHT30;57637;49.272;8.590;2023-05-21T04:11:14;14.46;86.07
70246;SHT30;57637;49.272;8.590;2023-05-21T04:13:39;14.45;85.97
70246;SHT30;57637;49.272;8.590;2023-05-21T04:16:05;14.45;86.01
70246;SHT30;57637;49.272;8.590;2023-05-21T04:18:32;14.46;86.01
70246;SHT30;57637;49.272;8.590;2023-05-21T04:20:58;14.45;86.02
70246;SHT30;57637;49.272;8.590;2023-05-21T04:23:24;14.48;85.91
70246;SHT30;57637;49.272;8.590;2023-05-21T04:25:50;14.51;85.99
70246;SHT30;57637;49.272;8.590;2023-05-21T04:28:15;14.52;85.89
70246;SHT30;57637;49.272;8.590;2023-05-21T04:30:44;14.56;85.78
70246;SHT30;57637;49.272;8.590;2023-05-21T04:33:10;14.61;85.66
70246;SHT30;57637;49.272;8.590;2023-05-21T04:35:35;14.62;85.67
70246;SHT30;57637;49.272;8.590;2023-05-21T04:38:01;14.64;85.65
70246;SHT30;57637;49.272;8.590;2023-05-21T04:40:26;14.66;85.66
70246;SHT30;57637;49.272;8.590;2023-05-21T04:42:51;14.68;85.64
70246;SHT30;57637;49.272;8.590;2023-05-21T04:45:17;14.75;85.54
70246;SHT30;57637;49.272;8.590;2023-05-21T04:47:42;14.68;85.65
70246;SHT30;57637;49.272;8.590;2023-05-21T04:50:08;14.68;85.70
70246;SHT30;57637;49.272;8.590;2023-05-21T04:52:34;14.78;85.51
70246;SHT30;57637;49.272;8.590;2023-05-21T04:55:01;14.82;85.29
70246;SHT30;57637;49.272;8.590;2023-05-21T04:57:27;14.86;85.21
70246;SHT30;57637;49.272;8.590;2023-05-21T04:59:53;14.90;84.98
70246;SHT30;57637;49.272;8.590;2023-05-21T05:02:19;14.99;84.89
70246;SHT30;57637;49.272;8.590;2023-05-21T05:04:44;15.04;84.77
70246;SHT30;57637;49.272;8.590;2023-05-21T05:07:10;15.09;84.64
70246;SHT30;57637;49.272;8.590;2023-05-21T05:09:36;15.14;84.48
70246;SHT30;57637;49.272;8.590;2023-05-21T05:12:01;15.13;84.42
70246;SHT30;57637;49.272;8.590;2023-05-21T05:14:27;15.26;84.26
70246;SHT30;57637;49.272;8.590;2023-05-21T05:16:52;15.34;83.80
70246;SHT30;57637;49.272;8.590;2023-05-21T05:19:18;15.40;83.76
70246;SHT30;57637;49.272;8.590;2023-05-21T05:21:43;15.41;83.88
70246;SHT30;57637;49.272;8.590;2023-05-21T05:24:09;15.50;83.72
70246;SHT30;57637;49.272;8.590;2023-05-21T05:26:34;15.48;83.95
70246;SHT30;57637;49.272;8.590;2023-05-21T05:29:00;15.53;83.72
70246;SHT30;57637;49.272;8.590;2023-05-21T05:31:25;15.64;83.61
70246;SHT30;57637;49.272;8.590;2023-05-21T05:33:51;15.72;83.32
70246;SHT30;57637;49.272;8.590;2023-05-21T05:36:16;15.75;83.12
70246;SHT30;57637;49.272;8.590;2023-05-21T05:38:41;15.81;82.96
70246;SHT30;57637;49.272;8.590;2023-05-21T05:41:07;15.80;83.00
70246;SHT30;57637;49.272;8.590;2023-05-21T05:43:32;15.97;82.67
70246;SHT30;57637;49.272;8.590;2023-05-21T05:45:57;16.00;82.62
70246;SHT30;57637;49.272;8.590;2023-05-21T05:48:24;16.02;82.36
70246;SHT30;57637;49.272;8.590;2023-05-21T05:50:49;16.21;82.40
70246;SHT30;57637;49.272;8.590;2023-05-21T05:53:18;16.06;82.40
70246;SHT30;57637;49.272;8.590;2023-05-21T05:55:43;15.90;83.50
70246;SHT30;57637;49.272;8.590;2023-05-21T05:58:09;16.11;83.13
70246;SHT30;57637;49.272;8.590;2023-05-21T06:00:34;16.01;84.05
70246;SHT30;57637;49.272;8.590;2023-05-21T06:03:00;16.02;83.18
70246;SHT30;57637;49.272;8.590;2023-05-21T06:05:25;16.56;83.07
70246;SHT30;57637;49.272;8.590;2023-05-21T06:07:51;16.93;82.04
70246;SHT30;57637;49.272;8.590;2023-05-21T06:10:16;17.14;80.46
70246;SHT30;57637;49.272;8.590;2023-05-21T06:12:42;17.30;79.71
70246;SHT30;57637;49.272;8.590;2023-05-21T06:15:08;17.08;78.85
70246;SHT30;57637;49.272;8.590;2023-05-21T06:17:33;17.27;79.45
70246;SHT30;57637;49.272;8.590;2023-05-21T06:19:59;17.68;78.11
70246;SHT30;57637;49.272;8.590;2023-05-21T06:22:24;17.65;78.58
70246;SHT30;57637;49.272;8.590;2023-05-21T06:24:49;17.56;78.84
70246;SHT30;57637;49.272;8.590;2023-05-21T06:27:15;17.51;77.89
70246;SHT30;57637;49.272;8.590;2023-05-21T06:29:41;17.56;78.73
70246;SHT30;57637;49.272;8.590;2023-05-21T06:32:09;17.89;77.94
70246;SHT30;57637;49.272;8.590;2023-05-21T06:34:34;18.05;77.33
70246;SHT30;57637;49.272;8.590;2023-05-21T06:37:00;18.33;76.95
70246;SHT30;57637;49.272;8.590;2023-05-21T06:39:25;18.37;76.45
70246;SHT30;57637;49.272;8.590;2023-05-21T06:41:51;18.74;76.15
70246;SHT30;57637;49.272;8.590;2023-05-21T06:44:17;18.77;76.00
70246;SHT30;57637;49.272;8.590;2023-05-21T06:46:42;19.32;74.03
70246;SHT30;57637;49.272;8.590;2023-05-21T06:49:09;19.25;74.67
70246;SHT30;57637;49.272;8.590;2023-05-21T06:51:35;19.00;74.67
70246;SHT30;57637;49.272;8.590;2023-05-21T06:54:01;19.42;74.13
70246;SHT30;57637;49.272;8.590;2023-05-21T06:56:26;19.73;72.99
70246;SHT30;57637;49.272;8.590;2023-05-21T06:58:52;19.67;72.82
70246;SHT30;57637;49.272;8.590;2023-05-21T07:01:18;19.77;71.69
70246;SHT30;57637;49.272;8.590;2023-05-21T07:03:43;19.98;71.35
70246;SHT30;57637;49.272;8.590;2023-05-21T07:06:09;19.82;71.90
70246;SHT30;57637;49.272;8.590;2023-05-21T07:08:34;19.93;72.30
70246;SHT30;57637;49.272;8.590;2023-05-21T07:10:59;20.18;71.05
70246;SHT30;57637;49.272;8.590;2023-05-21T07:13:25;20.20;69.98
70246;SHT30;57637;49.272;8.590;2023-05-21T07:15:50;20.12;71.14
70246;SHT30;57637;49.272;8.590;2023-05-21T07:18:15;20.34;70.11
70246;SHT30;57637;49.272;8.590;2023-05-21T07:20:41;20.40;68.94
70246;SHT30;57637;49.272;8.590;2023-05-21T07:23:06;20.57;68.56
70246;SHT30;57637;49.272;8.590;2023-05-21T07:25:32;20.88;68.67
70246;SHT30;57637;49.272;8.590;2023-05-21T07:27:57;20.82;68.40
70246;SHT30;57637;49.272;8.590;2023-05-21T07:30:23;21.10;67.28
70246;SHT30;57637;49.272;8.590;2023-05-21T07:32:48;21.53;66.40
70246;SHT30;57637;49.272;8.590;2023-05-21T07:35:14;21.26;67.59
70246;SHT30;57637;49.272;8.590;2023-05-21T07:37:39;21.53;67.43
70246;SHT30;57637;49.272;8.590;2023-05-21T07:40:05;21.98;65.09
70246;SHT30;57637;49.272;8.590;2023-05-21T07:42:31;22.10;64.43
70246;SHT30;57637;49.272;8.590;2023-05-21T07:44:57;21.98;64.71
70246;SHT30;57637;49.272;8.590;2023-05-21T07:47:22;20.96;67.07
70246;SHT30;57637;49.272;8.590;2023-05-21T07:49:48;21.02;67.51
70246;SHT30;57637;49.272;8.590;2023-05-21T07:52:13;21.37;67.36
70246;SHT30;57637;49.272;8.590;2023-05-21T07:54:40;21.71;66.19
70246;SHT30;57637;49.272;8.590;2023-05-21T07:57:08;21.76;65.48
70246;SHT30;57637;49.272;8.590;2023-05-21T07:59:34;21.78;65.28
70246;SHT30;57637;49.272;8.590;2023-05-21T08:01:59;21.33;65.54
70246;SHT30;57637;49.272;8.590;2023-05-21T08:04:24;21.33;65.54
70246;SHT30;57637;49.272;8.590;2023-05-21T08:06:50;21.94;65.31
70246;SHT30;57637;49.272;8.590;2023-05-21T08:09:15;21.10;66.16
70246;SHT30;57637;49.272;8.590;2023-05-21T08:11:42;21.49;65.84
70246;SHT30;57637;49.272;8.590;2023-05-21T08:14:08;21.35;66.09
70246;SHT30;57637;49.272;8.590;2023-05-21T08:16:34;21.13;65.39
70246;SHT30;57637;49.272;8.590;2023-05-21T08:19:00;21.39;65.73
70246;SHT30;57637;49.272;8.590;2023-05-21T08:21:26;20.88;67.35
70246;SHT30;57637;49.272;8.590;2023-05-21T08:23:51;21.26;67.10
70246;SHT30;57637;49.272;8.590;2023-05-21T08:26:17;21.46;65.63
70246;SHT30;57637;49.272;8.590;2023-05-21T08:28:42;20.99;67.44
70246;SHT30;57637;49.272;8.590;2023-05-21T08:31:08;20.82;67.48
70246;SHT30;57637;49.272;8.590;2023-05-21T08:33:33;20.82;67.73
70246;SHT30;57637;49.272;8.590;2023-05-21T08:36:01;21.06;67.57
70246;SHT30;57637;49.272;8.590;2023-05-21T08:38:27;21.00;68.41
70246;SHT30;57637;49.272;8.590;2023-05-21T08:40:53;20.85;67.97
70246;SHT30;57637;49.272;8.590;2023-05-21T08:43:19;20.78;68.43
70246;SHT30;57637;49.272;8.590;2023-05-21T08:45:46;20.99;67.61
70246;SHT30;57637;49.272;8.590;2023-05-21T08:48:18;21.13;66.81
70246;SHT30;57637;49.272;8.590;2023-05-21T08:50:47;21.61;65.96
70246;SHT30;57637;49.272;8.590;2023-05-21T08:53:15;21.37;64.49
70246;SHT30;57637;49.272;8.590;2023-05-21T08:55:41;21.74;64.39
70246;SHT30;57637;49.272;8.590;2023-05-21T08:58:07;21.97;64.44
70246;SHT30;57637;49.272;8.590;2023-05-21T09:00:32;22.08;62.60
70246;SHT30;57637;49.272;8.590;2023-05-21T09:02:58;22.01;62.17
70246;SHT30;57637;49.272;8.590;2023-05-21T09:05:25;22.18;61.97
70246;SHT30;57637;49.272;8.590;2023-05-21T09:07:58;22.31;60.71
70246;SHT30;57637;49.272;8.590;2023-05-21T09:10:36;22.12;61.03
70246;SHT30;57637;49.272;8.590;2023-05-21T09:13:03;22.52;60.24
70246;SHT30;57637;49.272;8.590;2023-05-21T09:15:29;22.41;60.19
70246;SHT30;57637;49.272;8.590;2023-05-21T09:17:55;22.42;59.57
70246;SHT30;57637;49.272;8.590;2023-05-21T09:20:24;22.37;59.80
70246;SHT30;57637;49.272;8.590;2023-05-21T09:22:51;22.71;59.93
70246;SHT30;57637;49.272;8.590;2023-05-21T09:25:19;23.02;58.79
70246;SHT30;57637;49.272;8.590;2023-05-21T09:27:46;23.03;58.61
70246;SHT30;57637;49.272;8.590;2023-05-21T09:30:12;22.90;59.29
70246;SHT30;57637;49.272;8.590;2023-05-21T09:32:39;22.79;59.42
70246;SHT30;57637;49.272;8.590;2023-05-21T09:35:14;22.81;59.56
70246;SHT30;57637;49.272;8.590;2023-05-21T09:37:44;22.83;59.39
70246;SHT30;57637;49.272;8.590;2023-05-21T09:40:15;22.95;58.00
70246;SHT30;57637;49.272;8.590;2023-05-21T09:42:44;23.30;58.73
70246;SHT30;57637;49.272;8.590;2023-05-21T09:45:11;23.40;57.45
70246;SHT30;57637;49.272;8.590;2023-05-21T09:47:40;23.82;55.54
70246;SHT30;57637;49.272;8.590;2023-05-21T09:50:08;23.78;57.22
70246;SHT30;57637;49.272;8.590;2023-05-21T09:52:35;23.94;55.86
70246;SHT30;57637;49.272;8.590;2023-05-21T09:55:02;23.55;55.59
70246;SHT30;57637;49.272;8.590;2023-05-21T09:57:30;23.71;56.32
70246;SHT30;57637;49.272;8.590;2023-05-21T09:59:56;23.46;56.08
70246;SHT30;57637;49.272;8.590;2023-05-21T10:02:22;22.92;58.23
70246;SHT30;57637;49.272;8.590;2023-05-21T10:04:49;23.34;56.89
70246;SHT30;57637;49.272;8.590;2023-05-21T10:07:16;23.55;58.10
70246;SHT30;57637;49.272;8.590;2023-05-21T10:09:45;23.89;57.60
70246;SHT30;57637;49.272;8.590;2023-05-21T10:12:13;24.01;55.85
70246;SHT30;57637;49.272;8.590;2023-05-21T10:14:41;24.22;54.87
70246;SHT30;57637;49.272;8.590;2023-05-21T10:17:10;24.02;56.39
70246;SHT30;57637;49.272;8.590;2023-05-21T10:19:36;24.33;55.40
70246;SHT30;57637;49.272;8.590;2023-05-21T10:22:03;24.28;54.85
70246;SHT30;57637;49.272;8.590;2023-05-21T10:24:30;24.33;55.84
70246;SHT30;57637;49.272;8.590;2023-05-21T10:26:57;24.12;55.43
70246;SHT30;57637;49.272;8.590;2023-05-21T10:29:22;24.55;55.09
70246;SHT30;57637;49.272;8.590;2023-05-21T10:31:48;24.29;54.73
70246;SHT30;57637;49.272;8.590;2023-05-21T10:34:20;24.49;55.58
70246;SHT30;57637;49.272;8.590;2023-05-21T10:36:47;24.36;55.85
70246;SHT30;57637;49.272;8.590;2023-05-21T10:39:13;24.83;54.56
70246;SHT30;57637;49.272;8.590;2023-05-21T10:41:55;24.79;54.95
70246;SHT30;57637;49.272;8.590;2023-05-21T10:47:11;23.77;56.18
70246;SHT30;57637;49.272;8.590;2023-05-21T10:49:53;24.93;53.62
70246;SHT30;57637;49.272;8.590;2023-05-21T11:00:19;24.59;54.44
70246;SHT30;57637;49.272;8.590;2023-05-21T11:02:46;25.33;54.20
70246;SHT30;57637;49.272;8.590;2023-05-21T11:05:12;25.06;54.60
70246;SHT30;57637;49.272;8.590;2023-05-21T11:07:51;25.08;54.25
70246;SHT30;57637;49.272;8.590;2023-05-21T11:10:36;25.10;55.08
70246;SHT30;57637;49.272;8.590;2023-05-21T11:13:13;25.03;55.03
70246;SHT30;57637;49.272;8.590;2023-05-21T11:21:04;24.51;55.66
70246;SHT30;57637;49.272;8.590;2023-05-21T11:26:18;25.33;54.93
70246;SHT30;57637;49.272;8.590;2023-05-21T11:31:28;25.02;54.94
70246;SHT30;57637;49.272;8.590;2023-05-21T11:34:15;24.86;55.28
70246;SHT30;57637;49.272;8.590;2023-05-21T11:36:44;24.77;55.16
70246;SHT30;57637;49.272;8.590;2023-05-21T11:39:14;25.00;54.85
70246;SHT30;57637;49.272;8.590;2023-05-21T11:44:17;25.14;52.20
70246;SHT30;57637;49.272;8.590;2023-05-21T11:46:45;25.02;52.87
70246;SHT30;57637;49.272;8.590;2023-05-21T11:49:12;25.00;53.76
70246;SHT30;57637;49.272;8.590;2023-05-21T11:51:39;25.26;53.19
70246;SHT30;57637;49.272;8.590;2023-05-21T11:54:07;25.28;52.82
70246;SHT30;57637;49.272;8.590;2023-05-21T11:56:33;25.18;52.97
70246;SHT30;57637;49.272;8.590;2023-05-21T11:59:01;25.13;54.51
70246;SHT30;57637;49.272;8.590;2023-05-21T12:01:26;25.20;53.60
70246;SHT30;57637;49.272;8.590;2023-05-21T12:03:52;25.17;54.46
70246;SHT30;57637;49.272;8.590;2023-05-21T12:06:17;25.16;53.40
70246;SHT30;57637;49.272;8.590;2023-05-21T12:08:49;25.28;52.67
70246;SHT30;57637;49.272;8.590;2023-05-21T12:11:16;25.44;52.42
70246;SHT30;57637;49.272;8.590;2023-05-21T12:13:41;25.69;50.33
70246;SHT30;57637;49.272;8.590;2023-05-21T12:16:07;25.81;50.05
70246;SHT30;57637;49.272;8.590;2023-05-21T12:18:33;25.77;50.17
70246;SHT30;57637;49.272;8.590;2023-05-21T12:21:00;25.48;49.89
70246;SHT30;57637;49.272;8.590;2023-05-21T12:23:26;25.37;49.29
70246;SHT30;57637;49.272;8.590;2023-05-21T12:25:51;25.34;48.75
70246;SHT30;57637;49.272;8.590;2023-05-21T12:28:18;25.68;48.69
70246;SHT30;57637;49.272;8.590;2023-05-21T12:30:45;25.49;48.90
70246;SHT30;57637;49.272;8.590;2023-05-21T12:33:10;25.74;49.23
70246;SHT30;57637;49.272;8.590;2023-05-21T12:35:36;25.68;50.07
70246;SHT30;57637;49.272;8.590;2023-05-21T12:38:01;25.79;49.71
70246;SHT30;57637;49.272;8.590;2023-05-21T12:40:37;25.84;48.31
70246;SHT30;57637;49.272;8.590;2023-05-21T12:43:03;25.89;45.59
70246;SHT30;57637;49.272;8.590;2023-05-21T12:45:29;25.86;44.41
70246;SHT30;57637;49.272;8.590;2023-05-21T12:47:56;26.08;43.92
70246;SHT30;57637;49.272;8.590;2023-05-21T12:50:24;25.93;44.81
70246;SHT30;57637;49.272;8.590;2023-05-21T12:52:53;25.95;45.42
70246;SHT30;57637;49.272;8.590;2023-05-21T12:55:23;26.15;45.47
70246;SHT30;57637;49.272;8.590;2023-05-21T12:58:00;26.49;45.01
70246;SHT30;57637;49.272;8.590;2023-05-21T13:00:28;26.65;45.40
70246;SHT30;57637;49.272;8.590;2023-05-21T13:02:54;26.57;46.09
70246;SHT30;57637;49.272;8.590;2023-05-21T13:05:20;26.29;46.63
70246;SHT30;57637;49.272;8.590;2023-05-21T13:07:46;26.25;46.96
70246;SHT30;57637;49.272;8.590;2023-05-21T13:10:11;26.59;47.21
70246;SHT30;57637;49.272;8.590;2023-05-21T13:12:37;26.64;46.91
70246;SHT30;57637;49.272;8.590;2023-05-21T13:15:03;26.65;47.43
70246;SHT30;57637;49.272;8.590;2023-05-21T13:17:30;26.93;46.42
70246;SHT30;57637;49.272;8.590;2023-05-21T13:22:48;26.56;47.01
70246;SHT30;57637;49.272;8.590;2023-05-21T13:25:16;26.90;47.11
70246;SHT30;57637;49.272;8.590;2023-05-21T13:27:44;26.84;47.25
70246;SHT30;57637;49.272;8.590;2023-05-21T13:30:12;26.30;47.34
70246;SHT30;57637;49.272;8.590;2023-05-21T13:32:38;26.49;47.82
70246;SHT30;57637;49.272;8.590;2023-05-21T13:35:05;26.67;47.45
70246;SHT30;57637;49.272;8.590;2023-05-21T13:37:30;26.90;46.76
70246;SHT30;57637;49.272;8.590;2023-05-21T13:39:56;26.47;46.63
70246;SHT30;57637;49.272;8.590;2023-05-21T13:42:22;27.04;47.15
70246;SHT30;57637;49.272;8.590;2023-05-21T13:44:47;26.73;47.69
70246;SHT30;57637;49.272;8.590;2023-05-21T13:47:14;26.83;46.67
70246;SHT30;57637;49.272;8.590;2023-05-21T13:49:40;26.90;46.63
70246;SHT30;57637;49.272;8.590;2023-05-21T13:52:06;26.57;45.67
70246;SHT30;57637;49.272;8.590;2023-05-21T13:54:32;26.61;44.41
70246;SHT30;57637;49.272;8.590;2023-05-21T13:56:58;26.46;43.33
70246;SHT30;57637;49.272;8.590;2023-05-21T13:59:24;26.63;43.79
70246;SHT30;57637;49.272;8.590;2023-05-21T14:01:49;27.15;44.20
70246;SHT30;57637;49.272;8.590;2023-05-21T14:04:16;27.63;43.73
70246;SHT30;57637;49.272;8.590;2023-05-21T14:06:43;27.01;44.83
70246;SHT30;57637;49.272;8.590;2023-05-21T14:09:08;27.18;44.76
70246;SHT30;57637;49.272;8.590;2023-05-21T14:11:34;27.07;45.47
70246;SHT30;57637;49.272;8.590;2023-05-21T14:14:00;27.27;44.93
70246;SHT30;57637;49.272;8.590;2023-05-21T14:16:26;26.93;44.55
70246;SHT30;57637;49.272;8.590;2023-05-21T14:18:52;27.21;44.96
70246;SHT30;57637;49.272;8.590;2023-05-21T14:21:18;27.12;45.14
70246;SHT30;57637;49.272;8.590;2023-05-21T14:23:45;27.58;44.20
70246;SHT30;57637;49.272;8.590;2023-05-21T14:26:11;27.85;44.94
70246;SHT30;57637;49.272;8.590;2023-05-21T14:28:37;27.62;46.36
70246;SHT30;57637;49.272;8.590;2023-05-21T14:31:02;26.91;46.72
70246;SHT30;57637;49.272;8.590;2023-05-21T14:33:29;26.50;48.04
70246;SHT30;57637;49.272;8.590;2023-05-21T14:35:55;26.88;47.90
70246;SHT30;57637;49.272;8.590;2023-05-21T14:38:20;26.76;48.11
70246;SHT30;57637;49.272;8.590;2023-05-21T14:40:46;26.74;47.52
70246;SHT30;57637;49.272;8.590;2023-05-21T14:43:11;26.50;47.44
70246;SHT30;57637;49.272;8.590;2023-05-21T14:45:37;26.73;47.85
70246;SHT30;57637;49.272;8.590;2023-05-21T14:48:02;27.03;46.84
70246;SHT30;57637;49.272;8.590;2023-05-21T14:50:32;27.44;46.47
70246;SHT30;57637;49.272;8.590;2023-05-21T14:53:07;27.12;46.80
70246;SHT30;57637;49.272;8.590;2023-05-21T14:55:34;27.24;46.56
70246;SHT30;57637;49.272;8.590;2023-05-21T14:58:01;27.34;46.33
70246;SHT30;57637;49.272;8.590;2023-05-21T15:00:28;26.76;47.64
70246;SHT30;57637;49.272;8.590;2023-05-21T15:02:54;26.64;48.12
70246;SHT30;57637;49.272;8.590;2023-05-21T15:05:19;27.03;47.86
70246;SHT30;57637;49.272;8.590;2023-05-21T15:07:45;27.04;47.45
70246;SHT30;57637;49.272;8.590;2023-05-21T15:10:10;27.73;46.84
70246;SHT30;57637;49.272;8.590;2023-05-21T15:12:36;27.65;47.28
70246;SHT30;57637;49.272;8.590;2023-05-21T15:15:02;27.46;47.01
70246;SHT30;57637;49.272;8.590;2023-05-21T15:17:28;27.49;47.77
70246;SHT30;57637;49.272;8.590;2023-05-21T15:19:54;27.30;46.71
70246;SHT30;57637;49.272;8.590;2023-05-21T15:22:19;27.08;47.96
70246;SHT30;57637;49.272;8.590;2023-05-21T15:24:45;27.12;47.94
70246;SHT30;57637;49.272;8.590;2023-05-21T15:27:10;26.84;47.11
70246;SHT30;57637;49.272;8.590;2023-05-21T15:29:36;27.25;46.32
70246;SHT30;57637;49.272;8.590;2023-05-21T15:32:02;27.34;46.37
70246;SHT30;57637;49.272;8.590;2023-05-21T15:34:32;27.00;48.04
70246;SHT30;57637;49.272;8.590;2023-05-21T15:36:58;27.05;47.21
70246;SHT30;57637;49.272;8.590;2023-05-21T15:39:23;27.01;47.74
70246;SHT30;57637;49.272;8.590;2023-05-21T15:41:49;27.28;47.50
70246;SHT30;57637;49.272;8.590;2023-05-21T15:44:16;26.86;48.14
70246;SHT30;57637;49.272;8.590;2023-05-21T15:46:41;27.27;46.68
70246;SHT30;57637;49.272;8.590;2023-05-21T15:49:07;27.31;44.93
70246;SHT30;57637;49.272;8.590;2023-05-21T15:51:32;27.30;45.63
70246;SHT30;57637;49.272;8.590;2023-05-21T15:53:58;27.20;45.53
70246;SHT30;57637;49.272;8.590;2023-05-21T15:56:23;27.28;45.36
70246;SHT30;57637;49.272;8.590;2023-05-21T15:58:48;26.98;45.86